sensor_id;sensor_type;location;lat;lon;timestamp;pressure;altitude;pressure_sealevel;temperature;humidity
57056;BME280;42945;51.718;5.324;2022-10-22T00:01:32;100641.31;;;11.12;100.00
57056;BME280;42945;51.718;5.324;2022-10-22T00:03:57;100680.56;;;11.21;100.00
57056;BME280;42945;51.718;5.324;2022-10-22T00:06:24;100702.94;;;11.03;100.00
57056;BME280;42945;51.718;5.324;2022-10-22T00:08:49;100638.69;;;10.98;100.00
57056;BME280;42945;51.718;5.324;2022-10-22T00:11:15;100699.16;;;11.07;100.00
57056;BME280;42945;51.718;5.324;2022-10-22T00:13:41;100624.94;;;11.06;100.00
57056;BME280;42945;51.718;5.324;2022-10-22T00:16:06;100677.06;;;11.07;100.00
57056;BME280;42945;51.718;5.324;2022-10-22T00:18:32;100658.75;;;11.16;100.00
57056;BME280;42945;51.718;5.324;2022-10-22T00:20:57;100662.78;;;11.09;100.00
57056;BME280;42945;51.718;5.324;2022-10-22T00:23:22;100556.25;;;10.29;100.00
57056;BME280;42945;51.718;5.324;2022-10-22T00:25:47;100639.84;;;10.94;100.00
57056;BME280;42945;51.718;5.324;2022-10-22T00:28:13;100681.34;;;11.09;100.00
57056;BME280;42945;51.718;5.324;2022-10-22T00:30:39;100656.44;;;10.97;100.00
57056;BME280;42945;51.718;5.324;2022-10-22T00:33:04;100633.78;;;10.92;100.00
57056;BME280;42945;51.718;5.324;2022-10-22T00:35:29;100709.38;;;10.99;100.00
57056;BME280;42945;51.718;5.324;2022-10-22T00:37:55;100683.44;;;10.90;100.00
57056;BME280;42945;51.718;5.324;2022-10-22T00:40:20;100569.44;;;10.31;100.00
57056;BME280;42945;51.718;5.324;2022-10-22T00:42:45;100669.59;;;10.84;100.00
57056;BME280;42945;51.718;5.324;2022-10-22T00:47:36;100695.34;;;10.97;100.00
57056;BME280;42945;51.718;5.324;2022-10-22T00:50:04;100726.66;;;10.92;100.00
57056;BME280;42945;51.718;5.324;2022-10-22T00:52:31;100526.34;;;10.27;100.00
57056;BME280;42945;51.718;5.324;2022-10-22T00:54:56;100677.72;;;11.10;100.00
57056;BME280;42945;51.718;5.324;2022-10-22T00:57:22;100689.69;;;10.89;100.00
57056;BME280;42945;51.718;5.324;2022-10-22T00:59:47;100595.94;;;10.31;100.00
57056;BME280;42945;51.718;5.324;2022-10-22T01:02:13;100702.38;;;10.98;100.00
57056;BME280;42945;51.718;5.324;2022-10-22T01:04:39;100686.19;;;10.88;100.00
57056;BME280;42945;51.718;5.324;2022-10-22T01:07:04;100685.34;;;10.88;100.00
57056;BME280;42945;51.718;5.324;2022-10-22T01:12:39;100600.63;;;10.11;100.00
57056;BME280;42945;51.718;5.324;2022-10-22T01:15:10;100578.06;;;10.04;100.00
57056;BME280;42945;51.718;5.324;2022-10-22T01:20:24;100616.22;;;10.01;100.00
57056;BME280;42945;51.718;5.324;2022-10-22T01:25:46;100669.22;;;10.91;100.00
57056;BME280;42945;51.718;5.324;2022-10-22T01:28:18;100529.84;;;10.13;100.00
57056;BME280;42945;51.718;5.324;2022-10-22T01:30:48;100731.38;;;10.87;100.00
57056;BME280;42945;51.718;5.324;2022-10-22T01:33:16;100655.66;;;10.81;100.00
57056;BME280;42945;51.718;5.324;2022-10-22T01:35:43;100631.66;;;10.68;100.00
57056;BME280;42945;51.718;5.324;2022-10-22T01:38:13;100708.13;;;10.76;100.00
57056;BME280;42945;51.718;5.324;2022-10-22T01:40:41;100707.66;;;10.69;100.00
57056;BME280;42945;51.718;5.324;2022-10-22T01:43:08;100706.81;;;10.69;100.00
57056;BME280;42945;51.718;5.324;2022-10-22T01:45:41;100713.09;;;10.82;100.00
57056;BME280;42945;51.718;5.324;2022-10-22T01:48:28;100654.63;;;10.55;100.00
57056;BME280;42945;51.718;5.324;2022-10-22T01:56:14;100671.44;;;10.54;100.00
57056;BME280;42945;51.718;5.324;2022-10-22T02:06:39;100660.28;;;10.63;100.00
57056;BME280;42945;51.718;5.324;2022-10-22T02:09:06;100682.09;;;10.82;100.00
57056;BME280;42945;51.718;5.324;2022-10-22T02:11:32;100685.69;;;10.81;100.00
57056;BME280;42945;51.718;5.324;2022-10-22T02:13:58;100665.41;;;10.66;100.00
57056;BME280;42945;51.718;5.324;2022-10-22T02:16:47;100673.38;;;10.80;100.00
57056;BME280;42945;51.718;5.324;2022-10-22T02:19:18;100682.56;;;10.75;100.00
57056;BME280;42945;51.718;5.324;2022-10-22T02:21:47;100692.88;;;10.79;100.00
57056;BME280;42945;51.718;5.324;2022-10-22T02:24:12;100564.94;;;10.02;100.00
57056;BME280;42945;51.718;5.324;2022-10-22T02:26:41;100625.25;;;10.72;100.00
57056;BME280;42945;51.718;5.324;2022-10-22T02:29:14;100578.94;;;10.04;100.00
57056;BME280;42945;51.718;5.324;2022-10-22T02:31:43;100675.28;;;10.78;100.00
57056;BME280;42945;51.718;5.324;2022-10-22T02:34:10;100675.44;;;10.75;100.00
57056;BME280;42945;51.718;5.324;2022-10-22T02:36:38;100636.69;;;10.58;100.00
57056;BME280;42945;51.718;5.324;2022-10-22T02:39:04;100689.22;;;10.82;100.00
57056;BME280;42945;51.718;5.324;2022-10-22T02:41:30;100666.75;;;10.73;100.00
57056;BME280;42945;51.718;5.324;2022-10-22T02:44:05;100667.22;;;10.80;100.00
57056;BME280;42945;51.718;5.324;2022-10-22T02:46:34;100643.16;;;10.69;100.00
57056;BME280;42945;51.718;5.324;2022-10-22T02:49:00;100570.13;;;10.04;100.00
57056;BME280;42945;51.718;5.324;2022-10-22T02:51:25;100716.13;;;10.90;100.00
57056;BME280;42945;51.718;5.324;2022-10-22T02:53:50;100662.75;;;10.66;100.00
57056;BME280;42945;51.718;5.324;2022-10-22T02:56:15;100683.25;;;10.78;100.00
57056;BME280;42945;51.718;5.324;2022-10-22T02:58:41;100674.44;;;10.78;100.00
57056;BME280;42945;51.718;5.324;2022-10-22T03:01:06;100647.91;;;10.78;100.00
57056;BME280;42945;51.718;5.324;2022-10-22T03:03:32;102911.84;;;23.88;100.00
57056;BME280;42945;51.718;5.324;2022-10-22T03:05:57;100570.53;;;10.12;100.00
57056;BME280;42945;51.718;5.324;2022-10-22T03:08:25;100593.56;;;10.26;100.00
57056;BME280;42945;51.718;5.324;2022-10-22T03:10:51;100679.06;;;10.89;100.00
57056;BME280;42945;51.718;5.324;2022-10-22T03:13:16;100706.09;;;10.95;100.00
57056;BME280;42945;51.718;5.324;2022-10-22T03:15:41;100642.22;;;10.84;100.00
57056;BME280;42945;51.718;5.324;2022-10-22T03:18:07;100675.19;;;10.94;100.00
57056;BME280;42945;51.718;5.324;2022-10-22T03:20:35;100650.66;;;11.05;100.00
57056;BME280;42945;51.718;5.324;2022-10-22T03:23:00;100683.06;;;10.96;100.00
57056;BME280;42945;51.718;5.324;2022-10-22T03:25:26;100670.44;;;11.14;100.00
57056;BME280;42945;51.718;5.324;2022-10-22T03:27:52;100679.53;;;11.10;100.00
57056;BME280;42945;51.718;5.324;2022-10-22T03:30:19;100651.75;;;11.01;100.00
57056;BME280;42945;51.718;5.324;2022-10-22T03:32:44;100603.81;;;11.04;100.00
57056;BME280;42945;51.718;5.324;2022-10-22T03:35:10;100699.16;;;10.93;100.00
57056;BME280;42945;51.718;5.324;2022-10-22T03:37:35;100659.09;;;10.97;100.00
57056;BME280;42945;51.718;5.324;2022-10-22T03:40:01;100694.34;;;10.99;100.00
57056;BME280;42945;51.718;5.324;2022-10-22T03:42:26;100711.38;;;11.10;100.00
57056;BME280;42945;51.718;5.324;2022-10-22T03:44:55;100704.19;;;10.97;100.00
57056;BME280;42945;51.718;5.324;2022-10-22T03:47:23;100691.97;;;11.09;100.00
57056;BME280;42945;51.718;5.324;2022-10-22T03:49:49;100705.78;;;11.00;100.00
57056;BME280;42945;51.718;5.324;2022-10-22T03:52:15;100700.28;;;10.89;100.00
57056;BME280;42945;51.718;5.324;2022-10-22T03:54:40;100591.16;;;10.37;100.00
57056;BME280;42945;51.718;5.324;2022-10-22T03:57:06;100732.34;;;11.00;100.00
57056;BME280;42945;51.718;5.324;2022-10-22T03:59:35;100743.53;;;11.05;100.00
57056;BME280;42945;51.718;5.324;2022-10-22T04:02:00;100716.88;;;10.92;100.00
57056;BME280;42945;51.718;5.324;2022-10-22T04:04:25;100649.75;;;10.17;100.00
57056;BME280;42945;51.718;5.324;2022-10-22T04:06:51;100734.09;;;10.85;100.00
57056;BME280;42945;51.718;5.324;2022-10-22T04:09:16;100622.03;;;10.22;100.00
57056;BME280;42945;51.718;5.324;2022-10-22T04:11:41;100730.63;;;10.99;100.00
57056;BME280;42945;51.718;5.324;2022-10-22T04:14:07;100635.22;;;10.24;100.00
57056;BME280;42945;51.718;5.324;2022-10-22T04:16:32;100727.50;;;10.92;100.00
57056;BME280;42945;51.718;5.324;2022-10-22T04:18:57;100751.25;;;10.79;100.00
57056;BME280;42945;51.718;5.324;2022-10-22T04:21:23;100651.81;;;10.12;100.00
57056;BME280;42945;51.718;5.324;2022-10-22T04:23:51;100631.66;;;10.09;100.00
57056;BME280;42945;51.718;5.324;2022-10-22T04:26:20;100591.38;;;10.18;100.00
57056;BME280;42945;51.718;5.324;2022-10-22T04:28:46;100762.16;;;10.89;100.00
57056;BME280;42945;51.718;5.324;2022-10-22T04:31:12;100629.91;;;10.24;100.00
57056;BME280;42945;51.718;5.324;2022-10-22T04:33:38;100729.47;;;10.89;100.00
57056;BME280;42945;51.718;5.324;2022-10-22T04:36:12;100629.56;;;10.30;100.00
57056;BME280;42945;51.718;5.324;2022-10-22T04:38:38;100747.13;;;10.90;100.00
57056;BME280;42945;51.718;5.324;2022-10-22T04:41:07;100754.97;;;10.91;100.00
57056;BME280;42945;51.718;5.324;2022-10-22T04:43:35;100729.47;;;10.89;100.00
57056;BME280;42945;51.718;5.324;2022-10-22T04:46:01;100777.44;;;11.00;100.00
57056;BME280;42945;51.718;5.324;2022-10-22T04:48:26;100642.81;;;10.30;100.00
57056;BME280;42945;51.718;5.324;2022-10-22T04:50:51;100758.88;;;11.00;100.00
57056;BME280;42945;51.718;5.324;2022-10-22T04:53:16;100747.88;;;11.06;100.00
57056;BME280;42945;51.718;5.324;2022-10-22T04:55:42;100723.25;;;10.90;100.00
57056;BME280;42945;51.718;5.324;2022-10-22T04:58:07;100726.06;;;10.87;100.00
57056;BME280;42945;51.718;5.324;2022-10-22T05:00:32;100706.84;;;10.97;100.00
57056;BME280;42945;51.718;5.324;2022-10-22T05:02:57;100719.44;;;11.08;100.00
57056;BME280;42945;51.718;5.324;2022-10-22T05:05:26;100598.63;;;10.45;100.00
57056;BME280;42945;51.718;5.324;2022-10-22T05:07:51;100756.22;;;11.14;100.00
57056;BME280;42945;51.718;5.324;2022-10-22T05:10:16;100730.63;;;10.99;100.00
57056;BME280;42945;51.718;5.324;2022-10-22T05:12:42;100736.41;;;11.06;100.00
57056;BME280;42945;51.718;5.324;2022-10-22T05:15:07;100755.84;;;11.06;100.00
57056;BME280;42945;51.718;5.324;2022-10-22T05:17:35;100734.44;;;11.09;100.00
57056;BME280;42945;51.718;5.324;2022-10-22T05:20:01;100722.31;;;11.05;100.00
57056;BME280;42945;51.718;5.324;2022-10-22T05:22:26;100770.34;;;11.00;100.00
57056;BME280;42945;51.718;5.324;2022-10-22T05:24:52;100765.78;;;11.02;100.00
57056;BME280;42945;51.718;5.324;2022-10-22T05:27:17;100742.09;;;10.99;100.00
57056;BME280;42945;51.718;5.324;2022-10-22T05:29:42;100757.56;;;11.07;100.00
57056;BME280;42945;51.718;5.324;2022-10-22T05:32:07;100756.13;;;11.01;100.00
57056;BME280;42945;51.718;5.324;2022-10-22T05:34:33;100776.47;;;11.01;100.00
57056;BME280;42945;51.718;5.324;2022-10-22T05:37:00;100743.72;;;11.02;100.00
57056;BME280;42945;51.718;5.324;2022-10-22T05:39:25;100766.75;;;11.01;100.00
57056;BME280;42945;51.718;5.324;2022-10-22T05:41:50;100722.09;;;11.08;100.00
57056;BME280;42945;51.718;5.324;2022-10-22T05:44:15;100782.47;;;11.04;100.00
57056;BME280;42945;51.718;5.324;2022-10-22T05:46:41;100749.38;;;11.10;100.00
57056;BME280;42945;51.718;5.324;2022-10-22T05:49:09;100762.28;;;11.02;100.00
57056;BME280;42945;51.718;5.324;2022-10-22T05:51:36;100763.91;;;11.19;100.00
57056;BME280;42945;51.718;5.324;2022-10-22T05:54:03;100792.06;;;11.07;100.00
57056;BME280;42945;51.718;5.324;2022-10-22T05:56:32;100761.72;;;11.26;100.00
57056;BME280;42945;51.718;5.324;2022-10-22T05:58:57;100665.78;;;10.60;100.00
57056;BME280;42945;51.718;5.324;2022-10-22T06:01:24;100798.63;;;11.30;100.00
57056;BME280;42945;51.718;5.324;2022-10-22T06:03:52;100655.47;;;10.55;100.00
57056;BME280;42945;51.718;5.324;2022-10-22T06:08:46;100695.16;;;10.57;100.00
57056;BME280;42945;51.718;5.324;2022-10-22T06:11:12;100763.31;;;11.28;100.00
57056;BME280;42945;51.718;5.324;2022-10-22T06:13:37;100783.94;;;11.25;100.00
57056;BME280;42945;51.718;5.324;2022-10-22T06:16:03;100839.38;;;11.29;100.00
57056;BME280;42945;51.718;5.324;2022-10-22T06:18:28;100817.00;;;11.19;100.00
57056;BME280;42945;51.718;5.324;2022-10-22T06:21:02;100681.50;;;10.63;100.00
57056;BME280;42945;51.718;5.324;2022-10-22T06:23:27;100800.22;;;11.33;100.00
57056;BME280;42945;51.718;5.324;2022-10-22T06:25:56;100823.91;;;11.36;100.00
57056;BME280;42945;51.718;5.324;2022-10-22T06:28:22;100780.13;;;11.29;100.00
57056;BME280;42945;51.718;5.324;2022-10-22T06:30:47;100834.63;;;11.20;100.00
57056;BME280;42945;51.718;5.324;2022-10-22T06:33:12;100873.88;;;11.15;100.00
57056;BME280;42945;51.718;5.324;2022-10-22T06:35:37;100789.97;;;11.12;100.00
57056;BME280;42945;51.718;5.324;2022-10-22T06:38:06;100732.91;;;10.46;100.00
57056;BME280;42945;51.718;5.324;2022-10-22T06:40:32;100788.28;;;11.11;100.00
57056;BME280;42945;51.718;5.324;2022-10-22T06:43:00;100890.28;;;11.21;100.00
57056;BME280;42945;51.718;5.324;2022-10-22T06:45:26;100855.94;;;11.18;100.00
57056;BME280;42945;51.718;5.324;2022-10-22T06:47:51;100861.38;;;11.17;100.00
57056;BME280;42945;51.718;5.324;2022-10-22T06:50:17;100832.63;;;11.09;100.00
57056;BME280;42945;51.718;5.324;2022-10-22T06:52:43;100876.25;;;11.19;100.00
57056;BME280;42945;51.718;5.324;2022-10-22T06:55:08;100852.72;;;11.13;100.00
57056;BME280;42945;51.718;5.324;2022-10-22T06:57:33;100886.88;;;11.19;100.00
57056;BME280;42945;51.718;5.324;2022-10-22T06:59:59;100916.78;;;11.37;100.00
57056;BME280;42945;51.718;5.324;2022-10-22T07:02:24;100901.75;;;11.22;100.00
57056;BME280;42945;51.718;5.324;2022-10-22T07:04:50;100759.19;;;10.65;100.00
57056;BME280;42945;51.718;5.324;2022-10-22T07:07:15;100747.72;;;10.64;100.00
57056;BME280;42945;51.718;5.324;2022-10-22T07:09:40;100906.16;;;11.37;100.00
57056;BME280;42945;51.718;5.324;2022-10-22T07:12:09;100886.88;;;11.34;100.00
57056;BME280;42945;51.718;5.324;2022-10-22T07:14:34;100895.63;;;11.36;100.00
57056;BME280;42945;51.718;5.324;2022-10-22T07:17:00;100903.34;;;11.55;100.00
57056;BME280;42945;51.718;5.324;2022-10-22T07:19:26;100895.81;;;11.47;100.00
57056;BME280;42945;51.718;5.324;2022-10-22T07:21:51;100852.97;;;11.68;100.00
57056;BME280;42945;51.718;5.324;2022-10-22T07:24:16;100871.66;;;11.66;100.00
57056;BME280;42945;51.718;5.324;2022-10-22T07:26:41;100762.00;;;11.21;100.00
57056;BME280;42945;51.718;5.324;2022-10-22T07:29:09;100916.66;;;12.12;100.00
57056;BME280;42945;51.718;5.324;2022-10-22T07:31:38;100758.59;;;11.48;100.00
57056;BME280;42945;51.718;5.324;2022-10-22T07:34:03;100894.78;;;12.36;100.00
57056;BME280;42945;51.718;5.324;2022-10-22T07:36:28;100796.06;;;11.57;100.00
57056;BME280;42945;51.718;5.324;2022-10-22T07:38:57;100846.00;;;12.23;100.00
57056;BME280;42945;51.718;5.324;2022-10-22T07:41:35;100956.91;;;12.35;100.00
57056;BME280;42945;51.718;5.324;2022-10-22T07:44:06;100940.28;;;12.31;100.00
57056;BME280;42945;51.718;5.324;2022-10-22T07:46:31;100910.88;;;12.20;100.00
57056;BME280;42945;51.718;5.324;2022-10-22T07:48:56;100946.19;;;12.22;100.00
57056;BME280;42945;51.718;5.324;2022-10-22T07:51:21;100784.84;;;11.38;100.00
57056;BME280;42945;51.718;5.324;2022-10-22T07:53:47;100912.81;;;12.31;100.00
57056;BME280;42945;51.718;5.324;2022-10-22T07:56:12;100942.75;;;12.34;100.00
57056;BME280;42945;51.718;5.324;2022-10-22T07:58:38;100851.47;;;11.63;100.00
57056;BME280;42945;51.718;5.324;2022-10-22T08:01:06;100830.22;;;11.63;100.00
57056;BME280;42945;51.718;5.324;2022-10-22T08:03:35;100922.03;;;12.25;100.00
57056;BME280;42945;51.718;5.324;2022-10-22T08:06:00;100915.50;;;12.16;100.00
57056;BME280;42945;51.718;5.324;2022-10-22T08:08:26;100972.38;;;12.28;100.00
57056;BME280;42945;51.718;5.324;2022-10-22T08:10:51;100947.31;;;12.32;100.00
57056;BME280;42945;51.718;5.324;2022-10-22T08:13:17;100618.53;;;12.31;100.00
57056;BME280;42945;51.718;5.324;2022-10-22T08:15:43;100965.84;;;12.34;100.00
57056;BME280;42945;51.718;5.324;2022-10-22T08:18:08;100931.88;;;12.52;100.00
57056;BME280;42945;51.718;5.324;2022-10-22T08:20:33;100851.09;;;11.98;100.00
57056;BME280;42945;51.718;5.324;2022-10-22T08:22:59;100943.03;;;12.71;100.00
57056;BME280;42945;51.718;5.324;2022-10-22T08:25:25;100978.16;;;12.91;100.00
57056;BME280;42945;51.718;5.324;2022-10-22T08:27:51;100941.50;;;13.09;100.00
57056;BME280;42945;51.718;5.324;2022-10-22T08:30:16;100855.94;;;12.33;100.00
57056;BME280;42945;51.718;5.324;2022-10-22T08:32:42;100991.22;;;13.08;100.00
57056;BME280;42945;51.718;5.324;2022-10-22T08:35:07;100928.06;;;13.10;100.00
57056;BME280;42945;51.718;5.324;2022-10-22T08:37:32;100981.13;;;13.13;100.00
57056;BME280;42945;51.718;5.324;2022-10-22T08:39:58;100875.31;;;12.35;100.00
57056;BME280;42945;51.718;5.324;2022-10-22T08:50:04;100981.72;;;13.84;100.00
57056;BME280;42945;51.718;5.324;2022-10-22T08:52:30;101032.03;;;13.76;100.00
57056;BME280;42945;51.718;5.324;2022-10-22T08:55:01;100972.09;;;13.82;100.00
57056;BME280;42945;51.718;5.324;2022-10-22T09:00:13;100979.81;;;13.86;100.00
57056;BME280;42945;51.718;5.324;2022-10-22T09:02:47;100990.88;;;13.80;100.00
57056;BME280;42945;51.718;5.324;2022-10-22T09:07:42;101013.13;;;13.53;100.00
57056;BME280;42945;51.718;5.324;2022-10-22T09:10:12;101008.75;;;13.52;100.00
57056;BME280;42945;51.718;5.324;2022-10-22T09:12:37;101061.66;;;13.71;100.00
57056;BME280;42945;51.718;5.324;2022-10-22T09:15:03;101035.94;;;13.70;100.00
57056;BME280;42945;51.718;5.324;2022-10-22T09:17:30;101018.56;;;13.65;100.00
57056;BME280;42945;51.718;5.324;2022-10-22T09:22:37;101032.25;;;13.73;100.00
57056;BME280;42945;51.718;5.324;2022-10-22T09:25:16;101055.50;;;13.84;100.00
57056;BME280;42945;51.718;5.324;2022-10-22T09:27:43;101065.53;;;13.93;100.00
57056;BME280;42945;51.718;5.324;2022-10-22T09:30:29;100885.41;;;13.37;100.00
57056;BME280;42945;51.718;5.324;2022-10-22T09:32:58;101065.13;;;14.37;98.58
57056;BME280;42945;51.718;5.324;2022-10-22T09:35:25;100953.31;;;13.70;98.54
57056;BME280;42945;51.718;5.324;2022-10-22T09:37:52;100952.78;;;13.78;97.12
57056;BME280;42945;51.718;5.324;2022-10-22T09:40:18;101016.84;;;14.53;97.94
57056;BME280;42945;51.718;5.324;2022-10-22T09:42:44;100906.75;;;13.76;98.01
57056;BME280;42945;51.718;5.324;2022-10-22T09:45:20;101070.97;;;14.17;97.56
57056;BME280;42945;51.718;5.324;2022-10-22T09:47:47;101047.50;;;14.09;97.56
57056;BME280;42945;51.718;5.324;2022-10-22T09:50:19;101131.38;;;14.18;98.09
57056;BME280;42945;51.718;5.324;2022-10-22T09:52:53;101066.84;;;14.00;98.35
57056;BME280;42945;51.718;5.324;2022-10-22T09:55:20;101073.34;;;14.09;98.28
57056;BME280;42945;51.718;5.324;2022-10-22T09:57:51;101103.44;;;14.24;98.01
57056;BME280;42945;51.718;5.324;2022-10-22T10:00:17;101112.22;;;14.38;97.71
57056;BME280;42945;51.718;5.324;2022-10-22T10:02:42;101075.47;;;14.55;97.32
57056;BME280;42945;51.718;5.324;2022-10-22T10:05:16;100961.13;;;13.73;97.06
57056;BME280;42945;51.718;5.324;2022-10-22T10:07:41;101117.34;;;14.67;97.58
57056;BME280;42945;51.718;5.324;2022-10-22T10:10:17;101108.47;;;14.41;97.88
57056;BME280;42945;51.718;5.324;2022-10-22T10:25:36;101097.09;;;15.02;95.04
57056;BME280;42945;51.718;5.324;2022-10-22T10:30:30;101095.41;;;15.01;94.10
57056;BME280;42945;51.718;5.324;2022-10-22T10:33:02;101146.09;;;15.13;94.61
57056;BME280;42945;51.718;5.324;2022-10-22T10:40:41;100979.88;;;14.86;92.73
57056;BME280;42945;51.718;5.324;2022-10-22T10:43:10;101109.63;;;15.25;92.60
57056;BME280;42945;51.718;5.324;2022-10-22T10:45:52;101094.00;;;15.32;93.11
57056;BME280;42945;51.718;5.324;2022-10-22T10:48:47;101037.38;;;15.27;92.54
57056;BME280;42945;51.718;5.324;2022-10-22T10:51:22;101002.88;;;14.50;91.81
57056;BME280;42945;51.718;5.324;2022-10-22T10:54:02;100995.09;;;14.60;94.32
57056;BME280;42945;51.718;5.324;2022-10-22T10:56:35;101146.34;;;15.47;92.83
57056;BME280;42945;51.718;5.324;2022-10-22T10:59:08;101156.59;;;15.53;92.57
57056;BME280;42945;51.718;5.324;2022-10-22T11:01:40;101165.91;;;15.72;91.69
57056;BME280;42945;51.718;5.324;2022-10-22T11:06:57;101023.44;;;14.86;91.06
57056;BME280;42945;51.718;5.324;2022-10-22T11:09:26;101123.19;;;15.59;89.62
57056;BME280;42945;51.718;5.324;2022-10-22T11:11:54;101149.69;;;15.38;90.74
57056;BME280;42945;51.718;5.324;2022-10-22T11:14:29;100970.53;;;15.15;87.85
57056;BME280;42945;51.718;5.324;2022-10-22T11:17:09;101103.56;;;16.07;88.16
57056;BME280;42945;51.718;5.324;2022-10-22T11:19:38;101088.00;;;16.01;87.20
57056;BME280;42945;51.718;5.324;2022-10-22T11:27:12;101145.38;;;15.97;84.02
57056;BME280;42945;51.718;5.324;2022-10-22T11:29:45;101137.00;;;16.37;84.85
57056;BME280;42945;51.718;5.324;2022-10-22T11:32:18;101143.69;;;16.53;84.78
57056;BME280;42945;51.718;5.324;2022-10-22T11:37:49;101122.31;;;17.10;82.49
57056;BME280;42945;51.718;5.324;2022-10-22T11:40:17;101099.72;;;17.35;80.65
57056;BME280;42945;51.718;5.324;2022-10-22T11:42:51;101120.22;;;17.13;81.17
57056;BME280;42945;51.718;5.324;2022-10-22T11:47:52;101130.59;;;16.73;80.03
57056;BME280;42945;51.718;5.324;2022-10-22T11:50:27;101020.97;;;15.91;81.13
57056;BME280;42945;51.718;5.324;2022-10-22T11:53:17;101084.91;;;16.29;79.20
57056;BME280;42945;51.718;5.324;2022-10-22T11:55:45;101000.91;;;15.50;81.99
57056;BME280;42945;51.718;5.324;2022-10-22T12:03:43;101050.69;;;15.15;81.49
57056;BME280;42945;51.718;5.324;2022-10-22T12:08:43;101049.38;;;15.45;81.91
57056;BME280;42945;51.718;5.324;2022-10-22T12:16:18;101140.38;;;16.27;82.82
57056;BME280;42945;51.718;5.324;2022-10-22T12:18:52;101127.94;;;16.15;83.72
57056;BME280;42945;51.718;5.324;2022-10-22T12:21:19;101124.47;;;16.48;82.95
57056;BME280;42945;51.718;5.324;2022-10-22T12:23:44;101108.78;;;16.55;81.86
57056;BME280;42945;51.718;5.324;2022-10-22T12:26:30;101121.84;;;16.82;80.91
57056;BME280;42945;51.718;5.324;2022-10-22T12:29:05;101129.38;;;16.77;81.85
57056;BME280;42945;51.718;5.324;2022-10-22T12:31:37;101076.41;;;16.58;81.17
57056;BME280;42945;51.718;5.324;2022-10-22T12:34:03;101136.25;;;16.34;82.04
57056;BME280;42945;51.718;5.324;2022-10-22T12:36:28;101135.09;;;16.14;82.34
57056;BME280;42945;51.718;5.324;2022-10-22T12:38:54;104686.06;;;37.14;83.72
57056;BME280;42945;51.718;5.324;2022-10-22T12:41:28;100988.66;;;15.94;81.73
57056;BME280;42945;51.718;5.324;2022-10-22T12:43:57;101108.31;;;16.95;80.68
57056;BME280;42945;51.718;5.324;2022-10-22T12:46:22;100573.88;;;15.53;79.27
57056;BME280;42945;51.718;5.324;2022-10-22T12:48:48;100934.03;;;15.74;78.48
57056;BME280;42945;51.718;5.324;2022-10-22T12:51:15;101161.16;;;17.16;79.30
57056;BME280;42945;51.718;5.324;2022-10-22T12:53:42;101029.19;;;16.23;78.76
57056;BME280;42945;51.718;5.324;2022-10-22T12:56:10;101138.25;;;16.78;78.74
57056;BME280;42945;51.718;5.324;2022-10-22T12:58:37;101123.91;;;17.01;79.16
57056;BME280;42945;51.718;5.324;2022-10-22T13:01:03;100933.81;;;16.11;79.55
57056;BME280;42945;51.718;5.324;2022-10-22T13:03:35;101124.84;;;16.66;79.29
57056;BME280;42945;51.718;5.324;2022-10-22T13:06:10;101020.97;;;15.91;78.98
57056;BME280;42945;51.718;5.324;2022-10-22T13:08:36;101130.19;;;16.55;79.10
57056;BME280;42945;51.718;5.324;2022-10-22T13:11:06;101089.81;;;16.58;79.15
57056;BME280;42945;51.718;5.324;2022-10-22T13:16:16;101123.03;;;16.56;79.29
57056;BME280;42945;51.718;5.324;2022-10-22T13:18:42;101146.00;;;16.47;79.01
57056;BME280;42945;51.718;5.324;2022-10-22T13:24:21;100990.06;;;15.75;80.55
57056;BME280;42945;51.718;5.324;2022-10-22T13:26:48;101122.50;;;16.39;80.52
57056;BME280;42945;51.718;5.324;2022-10-22T13:29:14;101106.81;;;16.34;79.70
57056;BME280;42945;51.718;5.324;2022-10-22T13:31:47;100985.59;;;15.76;80.58
57056;BME280;42945;51.718;5.324;2022-10-22T13:34:18;101083.31;;;16.49;79.59
57056;BME280;42945;51.718;5.324;2022-10-22T13:36:44;101086.28;;;16.58;79.21
57056;BME280;42945;51.718;5.324;2022-10-22T13:39:19;101050.84;;;16.43;79.30
57056;BME280;42945;51.718;5.324;2022-10-22T13:41:45;101086.59;;;16.42;79.40
57056;BME280;42945;51.718;5.324;2022-10-22T13:44:10;101072.50;;;16.40;80.28
57056;BME280;42945;51.718;5.324;2022-10-22T13:46:36;101127.25;;;16.36;81.83
57056;BME280;42945;51.718;5.324;2022-10-22T13:49:06;101017.84;;;16.53;81.22
57056;BME280;42945;51.718;5.324;2022-10-22T13:51:36;101138.97;;;16.68;81.40
57056;BME280;42945;51.718;5.324;2022-10-22T13:54:02;101121.81;;;16.60;80.72
57056;BME280;42945;51.718;5.324;2022-10-22T13:56:33;101117.31;;;16.60;80.97
57056;BME280;42945;51.718;5.324;2022-10-22T13:58:58;101095.38;;;16.44;81.32
57056;BME280;42945;51.718;5.324;2022-10-22T14:01:25;101108.03;;;16.42;80.21
57056;BME280;42945;51.718;5.324;2022-10-22T14:03:52;108229.81;;;58.49;84.77
57056;BME280;42945;51.718;5.324;2022-10-22T14:06:19;101098.03;;;16.21;81.35
57056;BME280;42945;51.718;5.324;2022-10-22T14:08:45;101050.91;;;15.72;79.38
57056;BME280;42945;51.718;5.324;2022-10-22T14:11:12;101123.00;;;16.33;79.60
57056;BME280;42945;51.718;5.324;2022-10-22T14:13:37;101144.44;;;16.44;79.67
57056;BME280;42945;51.718;5.324;2022-10-22T14:16:03;101104.47;;;16.30;80.11
57056;BME280;42945;51.718;5.324;2022-10-22T14:18:29;101091.50;;;16.37;78.98
57056;BME280;42945;51.718;5.324;2022-10-22T14:20:57;101163.78;;;16.48;79.72